Time;durP1;ratioP1;P1;durP2;ratioP2;P2;SDS_P1;SDS_P2;PMS_P1;PMS_P2;Temp;Humidity;BMP_temperature;BMP_pressure;BME280_temperature;BME280_humidity;BME280_pressure;Samples;Min_cycle;Max_cycle;Signal;HPM_P1;HPM_P2
2023/08/02 00:01:34;;;;;;;52.13;25.37;;;;;;;19.20;81.35;99105.09;4910469;29;20039;-93
2023/08/02 00:04:00;;;;;;;41.58;24.77;;;;;;;19.39;81.21;99137.41;4906847;29;20046;-93
2023/08/02 00:06:29;;;;;;;47.13;24.73;;;;;;;19.33;81.90;99127.81;4912034;29;20047;-93
2023/08/02 00:08:55;;;;;;;43.88;23.83;;;;;;;19.10;82.15;99087.16;4939388;29;20546;-90
2023/08/02 00:11:21;;;;;;;34.63;21.30;;;;;;;19.20;82.16;99107.88;4927005;29;20067;-93
2023/08/02 00:13:48;;;;;;;37.85;21.85;;;;;;;19.23;82.14;99107.13;4922344;29;20102;-92
2023/08/02 00:16:14;;;;;;;39.93;23.33;;;;;;;19.35;82.82;99117.19;4912548;29;20391;-93
2023/08/02 00:18:40;;;;;;;37.03;21.70;;;;;;;19.29;81.87;99116.69;4922595;29;20039;-93
2023/08/02 00:21:06;;;;;;;32.60;22.20;;;;;;;19.29;80.61;99110.38;4913879;29;20071;-92
2023/08/02 00:23:32;;;;;;;40.53;22.97;;;;;;;19.24;82.15;99117.03;4909888;29;20681;-92
2023/08/02 00:25:58;;;;;;;;;;;;;;;19.28;81.94;99128.97;4915351;29;20040;-92
2023/08/02 00:28:24;;;;;;;33.97;21.73;;;;;;;19.23;82.82;99129.28;4925586;29;20467;-95
2023/08/02 00:30:50;;;;;;;42.47;23.25;;;;;;;19.12;83.35;99111.72;4916011;29;20055;-93
2023/08/02 00:33:16;;;;;;;36.53;22.73;;;;;;;19.11;83.64;99108.16;4911211;29;20047;-92
2023/08/02 00:35:46;;;;;;;39.33;22.23;;;;;;;19.16;83.69;99118.91;4916196;29;20042;-91
2023/08/02 00:38:13;;;;;;;34.85;22.25;;;;;;;19.12;84.05;99111.72;4910127;29;20047;-93
2023/08/02 00:40:39;;;;;;;;;;;;;;;19.20;84.45;99125.31;4916293;29;20063;-92
2023/08/02 00:43:05;;;;;;;37.33;21.05;;;;;;;19.14;84.71;99114.91;4925533;29;19993;-92
2023/08/02 00:45:32;;;;;;;32.25;21.95;;;;;;;18.93;84.68;99087.72;4914796;29;20039;-92
2023/08/02 00:47:59;;;;;;;37.05;22.63;;;;;;;19.16;84.65;99123.66;4909124;29;20043;-91
2023/08/02 00:50:30;;;;;;;42.80;24.45;;;;;;;19.08;84.99;99116.44;4915028;29;20078;-92
2023/08/02 00:52:57;;;;;;;42.38;23.27;;;;;;;19.14;84.11;99123.22;4925497;29;20043;-93
2023/08/02 00:55:23;;;;;;;46.28;25.52;;;;;;;19.12;84.93;99117.25;4891128;29;20134;-92
2023/08/02 00:57:50;;;;;;;42.43;24.30;;;;;;;19.16;85.13;99126.41;4885565;29;20064;-92
2023/08/02 01:00:16;;;;;;;40.78;25.15;;;;;;;19.05;85.00;99112.44;4874602;29;20293;-92
2023/08/02 01:02:42;;;;;;;50.50;24.87;;;;;;;18.69;85.52;99050.97;4884849;29;20059;-91
2023/08/02 01:05:08;;;;;;;38.50;24.42;;;;;;;19.04;84.95;99104.47;4874021;29;20080;-92
2023/08/02 01:07:49;;;;;;;36.63;23.13;;;;;;;18.91;84.25;99092.84;4884414;29;20135;-92
2023/08/02 01:10:41;;;;;;;47.53;26.20;;;;;;;18.75;84.65;99065.31;4874351;29;20116;-91
2023/08/02 01:13:08;;;;;;;47.70;28.40;;;;;;;18.77;84.71;99068.50;4883498;29;20056;-90
2023/08/02 01:15:34;;;;;;;38.33;25.13;;;;;;;19.12;83.84;99128.34;4873745;29;20036;-91
2023/08/02 01:18:00;;;;;;;41.33;25.80;;;;;;;19.01;83.29;99115.16;4875222;29;20044;-91
2023/08/02 01:20:27;;;;;;;49.63;26.95;;;;;;;18.75;83.93;99081.94;4906501;29;20461;-92
2023/08/02 01:22:53;;;;;;;43.85;27.33;;;;;;;19.00;84.75;99119.06;4856147;29;20048;-92
2023/08/02 01:25:19;;;;;;;46.57;27.30;;;;;;;18.99;84.96;99120.25;4891733;29;20044;-93
2023/08/02 01:27:56;;;;;;;47.90;26.88;;;;;;;19.01;85.76;99129.00;4879933;29;20144;-92
2023/08/02 01:30:25;;;;;;;45.03;25.75;;;;;;;18.98;85.30;99124.22;4886701;29;20056;-91
2023/08/02 01:32:53;;;;;;;40.83;24.48;;;;;;;18.99;85.16;99114.72;4919505;29;20051;-94
2023/08/02 01:35:20;;;;;;;45.40;26.35;;;;;;;18.95;85.34;99110.31;4940325;29;20043;-93
2023/08/02 01:37:47;;;;;;;36.38;24.15;;;;;;;18.97;86.12;99117.06;4926311;29;20146;-93
2023/08/02 01:40:13;;;;;;;43.40;24.67;;;;;;;19.02;85.69;99127.81;4926683;29;20051;-90
2023/08/02 01:42:40;;;;;;;42.95;25.17;;;;;;;18.97;84.56;99121.78;4943112;29;20096;-93
2023/08/02 01:45:06;;;;;;;38.10;23.67;;;;;;;18.95;83.84;99118.63;4941736;29;20468;-93
2023/08/02 01:47:32;;;;;;;41.83;24.60;;;;;;;18.92;84.04;99127.66;4941393;29;20047;-93
2023/08/02 01:49:58;;;;;;;42.20;23.87;;;;;;;18.93;84.91;99124.50;4957516;29;20042;-94
2023/08/02 01:52:24;;;;;;;33.17;22.87;;;;;;;18.97;84.80;99133.69;4957888;29;20050;-94
2023/08/02 01:54:50;;;;;;;42.47;23.17;;;;;;;18.84;85.92;99114.88;4958294;29;20035;-96
2023/08/02 01:57:16;;;;;;;45.07;23.43;;;;;;;18.75;87.08;99099.34;4926144;29;20419;-91
2023/08/02 01:59:42;;;;;;;38.20;22.17;;;;;;;18.92;86.82;99127.66;4959536;29;20051;-94
2023/08/02 02:02:08;;;;;;;43.87;23.07;;;;;;;18.59;86.78;99079.28;4929512;29;20049;-94
2023/08/02 02:04:38;;;;;;;37.87;22.73;;;;;;;18.80;86.19;99111.25;4932386;29;20039;-94
2023/08/02 02:07:04;;;;;;;45.00;23.27;;;;;;;18.81;86.63;99108.13;4928297;29;20059;-93
2023/08/02 02:09:30;;;;;;;56.35;25.33;;;;;;;18.85;86.89;99114.53;4909835;29;20051;-93
2023/08/02 02:11:56;;;;;;;47.63;24.97;;;;;;;18.94;86.64;99126.13;4907027;29;20043;-88
2023/08/02 02:14:22;;;;;;;41.67;23.87;;;;;;;19.04;86.79;99146.84;4922190;29;20053;-91
2023/08/02 02:16:48;;;;;;;56.57;26.60;;;;;;;18.97;87.16;99135.66;4940225;29;20137;-91
2023/08/02 02:19:37;;;;;;;52.90;27.20;;;;;;;18.69;87.79;99098.03;4936218;29;20069;-96
2023/08/02 02:22:03;;;;;;;62.55;30.40;;;;;;;18.68;89.02;99113.06;4929449;29;20043;-93
2023/08/02 02:24:29;;;;;;;62.13;31.03;;;;;;;18.58;89.41;99085.22;4916957;29;20075;-93
2023/08/02 02:26:58;;;;;;;56.60;30.25;;;;;;;18.36;89.37;99056.38;4929211;29;20311;-94
2023/08/02 02:29:24;;;;;;;52.70;30.90;;;;;;;18.36;89.73;99075.75;4930356;29;20568;-94
2023/08/02 02:31:53;;;;;;;56.60;31.85;;;;;;;18.66;89.92;99109.06;4944489;29;20043;-94
2023/08/02 02:34:18;;;;;;;;;;;;;;;18.93;88.81;99138.38;4946563;29;20043;-93
2023/08/02 02:36:46;;;;;;;54.53;30.33;;;;;;;18.95;89.40;99124.94;4960796;29;20122;-92
2023/08/02 02:39:12;;;;;;;53.30;28.42;;;;;;;18.85;89.60;99106.22;4927114;29;20043;-94
2023/08/02 02:41:38;;;;;;;58.67;29.23;;;;;;;18.99;89.64;99106.41;4928720;29;20568;-94
2023/08/02 02:44:04;;;;;;;62.33;28.40;;;;;;;19.13;89.51;99136.28;4963944;28;20046;-95
2023/08/02 02:46:31;;;;;;;58.00;29.55;;;;;;;18.95;89.09;99093.69;4927920;29;20070;-95
2023/08/02 02:48:57;;;;;;;69.40;29.50;;;;;;;18.86;89.30;99076.53;4945062;29;20130;-94
2023/08/02 02:51:23;;;;;;;55.47;27.07;;;;;;;19.05;89.15;99098.56;4944759;29;20303;-92
2023/08/02 02:53:49;;;;;;;55.53;26.33;;;;;;;19.10;88.51;99092.69;4928565;29;20043;-93
2023/08/02 02:56:15;;;;;;;79.30;25.87;;;;;;;18.97;88.41;99071.94;4925963;29;20039;-92
2023/08/02 02:58:41;;;;;;;53.00;25.00;;;;;;;19.27;88.31;99112.69;4927852;29;20106;-94
2023/08/02 03:01:07;;;;;;;79.00;26.13;;;;;;;19.09;88.20;99087.53;4928896;29;20043;-94
2023/08/02 03:03:33;;;;;;;50.67;26.13;;;;;;;19.15;87.61;99084.06;4930974;29;20035;-93
2023/08/02 03:05:59;;;;;;;53.90;25.38;;;;;;;19.30;87.05;99106.41;4901789;29;20504;-95
2023/08/02 03:08:25;;;;;;;50.00;25.88;;;;;;;18.90;86.90;99038.59;4947419;29;20169;-94
2023/08/02 03:10:52;;;;;;;53.22;29.48;;;;;;;19.05;86.65;99068.09;4913526;29;20532;-93
2023/08/02 03:13:18;;;;;;;47.63;29.47;;;;;;;19.12;86.35;99075.72;4927864;29;20047;-92
2023/08/02 03:15:44;;;;;;;52.83;30.73;;;;;;;19.32;86.25;99109.63;4927583;29;20062;-91
2023/08/02 03:18:10;;;;;;;49.53;28.87;;;;;;;19.23;85.96;99101.56;4929098;29;20074;-92
2023/08/02 03:20:39;;;;;;;55.17;31.47;;;;;;;19.28;86.09;99115.09;4930246;29;20078;-92
2023/08/02 03:23:05;;;;;;;47.85;29.58;;;;;;;19.18;86.41;99102.72;4911761;29;20043;-93
2023/08/02 03:25:32;;;;;;;54.88;31.27;;;;;;;19.40;86.11;99130.69;4944261;29;20045;-92
2023/08/02 03:27:58;;;;;;;54.77;30.10;;;;;;;19.41;85.92;99126.75;4926237;29;20066;-91
2023/08/02 03:30:24;;;;;;;51.60;30.73;;;;;;;19.32;85.66;99115.94;4925517;29;20394;-94
2023/08/02 03:32:50;;;;;;;53.97;29.30;;;;;;;18.99;85.45;99061.28;4941956;29;20338;-95
2023/08/02 03:35:19;;;;;;;46.53;29.92;;;;;;;19.28;85.32;99106.00;4916722;29;20065;-92
2023/08/02 03:37:46;;;;;;;53.90;29.92;;;;;;;19.52;85.50;99146.28;4946611;29;20042;-90
2023/08/02 03:40:12;;;;;;;53.30;30.63;;;;;;;19.37;85.20;99123.13;4945675;29;20424;-93
2023/08/02 03:42:39;;;;;;;57.80;32.10;;;;;;;19.25;85.42;99093.69;4961746;29;20294;-95
2023/08/02 03:45:10;;;;;;;65.03;32.33;;;;;;;19.66;85.12;99152.03;4965768;29;20051;-93
2023/08/02 03:47:37;;;;;;;83.00;35.13;;;;;;;19.57;85.55;99121.81;4968827;28;20757;-95
2023/08/02 03:50:03;;;;;;;73.28;35.50;;;;;;;19.39;85.52;99071.69;4935802;29;20027;-95
2023/08/02 03:52:30;;;;;;;76.65;35.15;;;;;;;19.74;85.46;99116.88;4936071;29;20043;-95
2023/08/02 03:54:57;;;;;;;74.28;34.90;;;;;;;19.65;84.66;99068.03;4939873;29;20047;-95
2023/08/02 03:57:31;;;;;;;95.13;38.50;;;;;;;19.99;84.18;99115.16;4953827;29;20031;-95
2023/08/02 03:59:58;;;;;;;73.72;36.22;;;;;;;19.87;83.78;99090.47;4953774;29;20047;-94
2023/08/02 04:02:28;;;;;;;55.63;33.70;;;;;;;20.22;83.69;99128.84;4942099;29;20113;-95
2023/08/02 04:05:14;;;;;;;65.05;33.67;;;;;;;20.31;82.91;99128.53;4974681;29;20124;-94
2023/08/02 04:07:44;;;;;;;54.70;33.40;;;;;;;19.91;82.99;99071.88;4960052;29;20087;-93
2023/08/02 04:10:11;;;;;;;47.38;29.15;;;;;;;20.02;82.79;99102.50;4926944;29;20122;-95
2023/08/02 04:12:53;;;;;;;52.13;30.73;;;;;;;19.63;83.80;99087.03;4956515;29;20050;-94
2023/08/02 04:15:20;;;;;;;58.08;30.63;;;;;;;19.89;84.13;99115.84;4956787;29;20041;-94
2023/08/02 04:17:49;;;;;;;54.80;29.70;;;;;;;19.49;83.64;99070.22;4973303;28;20055;-96
2023/08/02 04:20:41;;;;;;;67.30;31.58;;;;;;;19.51;83.87;99078.97;4963335;28;20039;-95
2023/08/02 04:23:26;;;;;;;62.85;32.60;;;;;;;19.42;84.23;99070.94;5120705;23;20093;-94
2023/08/02 04:26:11;;;;;;;53.78;32.50;;;;;;;19.96;84.56;99143.66;4982766;28;20062;-94
2023/08/02 04:29:02;;;;;;;58.22;32.38;;;;;;;19.51;84.54;99069.84;4993982;28;20031;-94
2023/08/02 04:31:58;;;;;;;61.10;31.15;;;;;;;19.93;84.05;99117.50;4993669;28;20031;-94
2023/08/02 04:45:57;;;;;;;54.10;30.88;;;;;;;20.10;82.65;99076.44;5031568;28;20540;-94
2023/08/02 04:48:31;;;;;;;50.72;28.98;;;;;;;20.38;82.43;99086.97;4997315;28;20125;-93
2023/08/02 04:56:33;;;;;;;51.38;27.77;;;;;;;20.96;80.99;99100.09;5007952;28;20081;-96
2023/08/02 04:58:59;;;;;;;49.28;26.77;;;;;;;21.22;80.79;99118.50;4948185;28;20537;-96
2023/08/02 05:01:32;;;;;;;59.50;27.20;;;;;;;21.40;81.29;99120.59;4947757;28;20049;-94
2023/08/02 05:04:00;;;;;;;59.25;27.67;;;;;;;21.23;80.71;99089.53;4992856;28;20053;-93
2023/08/02 05:06:38;;;;;;;52.40;24.77;;;;;;;21.57;79.73;99120.66;4981192;28;20042;-95
2023/08/02 05:09:06;;;;;;;53.42;24.92;;;;;;;21.84;80.04;99150.16;4980290;28;20066;-94
2023/08/02 05:11:42;;;;;;;55.95;26.63;;;;;;;21.49;79.32;99109.91;4950795;28;20054;-94
2023/08/02 05:14:18;;;;;;;65.03;27.15;;;;;;;21.35;79.45;99080.84;5007163;28;20034;-94
2023/08/02 05:16:45;;;;;;;53.22;26.05;;;;;;;21.37;78.98;99074.91;4978293;28;20064;-95
2023/08/02 05:19:16;;;;;;;51.03;25.75;;;;;;;21.33;79.12;99071.28;4995290;28;20039;-94
2023/08/02 05:21:47;;;;;;;41.33;27.58;;;;;;;21.41;79.67;99069.34;4997523;28;20069;-96
2023/08/02 05:24:19;;;;;;;46.80;27.15;;;;;;;21.46;79.14;99074.56;4995853;28;20102;-96
2023/08/02 05:27:08;;;;;;;47.88;25.38;;;;;;;21.53;78.86;99071.78;4982259;28;20064;-95
2023/08/02 05:29:37;;;;;;;45.90;25.40;;;;;;;21.73;78.86;99092.50;4983192;28;20042;-95
2023/08/02 05:32:32;;;;;;;55.03;24.80;;;;;;;22.27;78.29;99149.09;4988158;28;20101;-95
2023/08/02 05:35:16;;;;;;;43.83;25.65;;;;;;;21.86;78.22;99062.34;4974435;28;20050;-96
2023/08/02 05:43:36;;;;;;;137.98;26.88;;;;;;;22.33;77.58;99140.38;5031638;22;20047;-95
2023/08/02 05:46:13;;;;;;;42.83;22.90;;;;;;;22.25;77.27;99129.22;5125059;23;20138;-95
2023/08/02 05:48:49;;;;;;;44.88;24.52;;;;;;;22.25;76.88;99128.41;5035986;28;20037;-95
2023/08/02 05:51:22;;;;;;;46.00;23.85;;;;;;;22.13;77.33;99092.59;5001680;28;20125;-95
2023/08/02 05:54:05;;;;;;;51.20;25.63;;;;;;;22.02;76.35;99073.88;4988234;28;20030;-95
2023/08/02 05:56:47;;;;;;;44.75;23.67;;;;;;;22.24;76.47;99099.75;5009337;28;20049;-95
2023/08/02 05:59:20;;;;;;;45.25;24.00;;;;;;;22.31;75.72;99098.19;5002060;28;20018;-95
2023/08/02 06:01:52;;;;;;;39.38;24.90;;;;;;;22.28;75.69;99061.59;5018793;28;20157;-95
2023/08/02 06:04:20;;;;;;;45.00;24.50;;;;;;;22.86;75.20;99117.25;5064340;23;20058;-95
2023/08/02 06:06:58;;;;;;;46.95;24.98;;;;;;;22.64;75.12;99058.75;4980859;28;20043;-96
2023/08/02 06:09:37;;;;;;;65.55;27.10;;;;;;;23.01;74.42;99098.53;4996401;28;20043;-96
2023/08/02 06:12:08;;;;;;;76.22;26.13;;;;;;;22.70;74.42;99071.09;4980495;28;20018;-96
2023/08/02 06:14:35;;;;;;;42.63;22.17;;;;;;;22.91;74.77;99105.69;4961588;28;20042;-96
2023/08/02 06:17:31;;;;;;;57.60;24.33;;;;;;;22.98;74.91;99131.63;4964009;28;20493;-96
2023/08/02 06:20:00;;;;;;;55.70;22.57;;;;;;;22.62;75.35;99063.97;4947605;28;20062;-95
2023/08/02 06:22:29;;;;;;;63.67;21.92;;;;;;;22.52;74.92;99045.28;4963847;28;20050;-94
2023/08/02 06:25:13;;;;;;;;;;;;;;;23.12;75.27;99130.78;4982130;28;20046;-94
2023/08/02 06:27:55;;;;;;;83.07;22.88;;;;;;;22.80;75.47;99085.41;4992118;28;20347;-93
2023/08/02 06:30:48;;;;;;;42.03;19.60;;;;;;;22.71;75.90;99055.16;4964524;28;20050;-96
2023/08/02 06:33:16;;;;;;;50.55;19.63;;;;;;;22.99;75.47;99073.84;4947930;28;20051;-95
2023/08/02 06:35:44;;;;;;;34.42;19.50;;;;;;;22.87;75.71;99054.75;4929147;28;20062;-94
2023/08/02 06:38:15;;;;;;;60.20;22.23;;;;;;;22.88;74.65;99059.09;4960643;28;20038;-96
2023/08/02 06:40:59;;;;;;;49.03;21.80;;;;;;;22.93;75.46;99051.16;4949180;28;20031;-95
2023/08/02 06:43:34;;;;;;;41.05;20.75;;;;;;;23.41;75.18;99113.94;4947514;28;20039;-95
2023/08/02 06:46:19;;;;;;;49.10;21.02;;;;;;;23.23;73.92;99058.25;4980924;28;20043;-95
2023/08/02 06:49:38;;;;;;;51.13;21.65;;;;;;;23.62;73.85;99101.91;4976286;28;20046;-96
2023/08/02 06:52:54;;;;;;;76.40;22.63;;;;;;;23.61;73.76;99087.16;4979834;28;20067;-96
2023/08/02 06:55:44;;;;;;;50.40;21.80;;;;;;;23.62;73.67;99060.06;4995182;28;20054;-96
2023/08/02 06:58:37;;;;;;;39.40;18.33;;;;;;;23.77;71.75;99060.78;4941677;29;20119;-96
2023/08/02 07:04:53;;;;;;;37.80;16.80;;;;;;;24.41;70.57;99113.44;5106182;23;20038;-95
2023/08/02 07:08:03;;;;;;;32.78;16.13;;;;;;;24.19;70.95;99070.84;4979885;28;20027;-94
2023/08/02 07:10:53;;;;;;;34.80;17.48;;;;;;;24.04;70.77;99041.44;4936472;29;20072;-95
2023/08/02 07:13:23;;;;;;;;;;;;;;;24.55;70.60;99110.50;4906052;29;20066;-94
2023/08/02 07:16:34;;;;;;;25.05;14.55;;;;;;;24.46;69.36;99082.22;4907320;29;19951;-94
2023/08/02 07:22:24;;;;;;;38.85;17.25;;;;;;;24.10;68.62;99043.38;5098738;23;20057;-96
2023/08/02 07:24:57;;;;;;;40.90;16.73;;;;;;;23.88;69.86;99031.59;4972714;28;20073;-95
2023/08/02 07:28:02;;;;;;;33.15;15.88;;;;;;;24.32;70.70;99080.34;5018885;28;20041;-95
2023/08/02 07:30:48;;;;;;;36.33;15.65;;;;;;;24.12;68.78;99035.41;4992516;28;20061;-95
2023/08/02 07:33:17;;;;;;;41.72;14.40;;;;;;;24.45;69.35;99077.88;4973930;28;20582;-95
2023/08/02 07:36:05;;;;;;;49.28;15.32;;;;;;;24.61;68.79;99086.50;5008578;28;20022;-95
2023/08/02 07:39:15;;;;;;;35.67;14.13;;;;;;;24.60;67.97;99061.75;5042860;28;20063;-96
2023/08/02 07:42:46;;;;;;;25.10;12.05;;;;;;;24.71;67.27;99058.88;5046243;28;20033;-95
2023/08/02 07:45:44;;;;;;;24.75;12.65;;;;;;;24.46;66.27;99031.94;5056963;28;20053;-95
2023/08/02 07:52:29;;;;;;;24.65;12.32;;;;;;;25.04;65.49;99096.47;5099576;23;20045;-96
2023/08/02 07:56:15;;;;;;;51.70;13.95;;;;;;;24.80;65.65;99050.75;5119718;23;20068;-96
2023/08/02 08:41:36;;;;;;;22.08;11.95;;;;;;;25.05;62.12;99011.34;4992042;28;20480;-96
2023/08/02 08:44:05;;;;;;;40.13;14.98;;;;;;;25.17;62.20;99015.63;4964084;28;20039;-96
2023/08/02 08:46:35;;;;;;;30.50;13.40;;;;;;;25.15;61.21;99009.66;4950070;28;20043;-96
2023/08/02 08:49:11;;;;;;;27.95;13.40;;;;;;;25.55;62.04;99067.47;4948751;28;20110;-96
2023/08/02 08:52:04;;;;;;;18.60;10.00;;;;;;;25.26;59.60;99033.47;4913821;29;20120;-96
2023/08/02 08:55:33;;;;;;;19.73;10.90;;;;;;;25.39;60.85;99063.69;4911539;29;20066;-95
2023/08/02 09:03:46;;;;;;;;;;;;;;;25.58;60.40;99065.06;4958644;29;20051;-95
2023/08/02 09:09:32;;;;;;;14.10;9.02;;;;;;;25.71;57.88;99060.47;4943810;28;20091;-96
2023/08/02 09:12:34;;;;;;;52.20;10.68;;;;;;;25.36;59.06;99012.16;4945385;29;20043;-95
2023/08/02 09:16:14;;;;;;;39.70;10.75;;;;;;;25.07;60.41;98994.94;4923836;29;20048;-94
2023/08/02 09:19:41;;;;;;;16.38;10.60;;;;;;;25.52;60.64;99037.53;4939741;29;20052;-96
2023/08/02 09:22:22;;;;;;;15.75;10.00;;;;;;;25.75;59.57;99030.41;4909567;29;20040;-96
2023/08/02 09:25:21;;;;;;;15.48;9.07;;;;;;;25.60;58.96;98989.88;4905929;29;20064;-96
2023/08/02 09:42:17;;;;;;;15.73;8.95;;;;;;;26.10;57.43;98950.66;4936790;29;19934;-96
2023/08/02 09:45:21;;;;;;;20.83;10.15;;;;;;;26.18;55.90;98946.50;4923802;29;20055;-94
2023/08/02 09:48:20;;;;;;;16.42;8.75;;;;;;;26.38;56.05;98974.56;4939001;29;20059;-96
2023/08/02 09:53:47;;;;;;;11.15;7.13;;;;;;;26.44;53.77;98950.44;4976315;28;20062;-96
2023/08/02 09:57:10;;;;;;;21.92;8.48;;;;;;;26.80;51.98;99008.66;4951270;29;20051;-95
2023/08/02 10:00:07;;;;;;;19.17;8.80;;;;;;;26.56;53.29;98963.06;4959030;29;20051;-95
2023/08/02 10:03:32;;;;;;;12.80;8.82;;;;;;;26.80;55.11;98980.63;4979233;29;20051;-96
2023/08/02 10:06:36;;;;;;;11.48;7.72;;;;;;;27.00;55.59;98971.41;4965168;29;20055;-95
2023/08/02 10:15:20;;;;;;;12.70;7.65;;;;;;;26.97;54.58;98977.88;5085689;23;20059;-96
2023/08/02 10:33:40;;;;;;;9.85;7.15;;;;;;;27.48;53.86;98982.00;5239704;23;20603;-95
2023/08/02 10:36:16;;;;;;;15.98;7.90;;;;;;;27.56;53.66;98958.16;4916960;29;20040;-95
2023/08/02 10:39:41;;;;;;;16.95;7.95;;;;;;;27.31;50.90;98908.19;5170379;23;20022;-96
2023/08/02 10:54:28;;;;;;;15.90;7.20;;;;;;;27.25;51.89;98893.13;4976051;28;20039;-94
2023/08/02 10:57:05;;;;;;;17.27;7.30;;;;;;;27.75;53.71;98967.75;4917360;29;20052;-95
2023/08/02 11:00:13;;;;;;;9.32;6.53;;;;;;;27.65;53.90;98968.78;4885167;29;20068;-95
2023/08/02 11:02:52;;;;;;;13.50;6.63;;;;;;;27.03;53.34;98880.78;4894889;29;20032;-95
2023/08/02 11:06:01;;;;;;;15.13;7.18;;;;;;;27.23;53.32;98887.13;4898506;29;20053;-95
2023/08/02 11:08:54;;;;;;;16.10;7.63;;;;;;;28.03;53.78;98962.66;4886074;29;20060;-96
2023/08/02 11:11:53;;;;;;;34.88;8.63;;;;;;;28.22;53.17;98975.81;4887047;29;20032;-95
2023/08/02 11:14:54;;;;;;;35.35;9.15;;;;;;;28.15;53.38;98956.34;4901079;29;20057;-96
2023/08/02 11:17:36;;;;;;;23.73;8.50;;;;;;;27.76;53.85;98910.34;4918461;29;20025;-95
2023/08/02 11:21:19;;;;;;;20.15;8.10;;;;;;;27.85;53.62;98896.50;4905769;29;20027;-95
2023/08/02 11:24:54;;;;;;;16.48;8.43;;;;;;;28.20;53.01;98927.69;4863136;29;20048;-95
2023/08/02 11:27:33;;;;;;;19.52;8.82;;;;;;;28.17;52.90;98920.13;4845925;29;20050;-95
2023/08/02 11:30:06;;;;;;;17.63;8.67;;;;;;;27.71;52.30;98930.50;4834398;29;20083;-93
2023/08/02 11:32:33;;;;;;;15.13;7.88;;;;;;;27.66;53.41;98973.16;4813342;29;20424;-94
2023/08/02 11:35:01;;;;;;;10.07;6.82;;;;;;;27.48;52.65;98955.94;4830516;29;20054;-91
2023/08/02 11:37:27;;;;;;;16.42;6.32;;;;;;;27.29;51.26;98961.19;4812715;29;20149;-90
2023/08/02 11:39:56;;;;;;;15.10;5.47;;;;;;;27.40;52.11;98963.72;4832518;29;20057;-90
2023/08/02 11:42:23;;;;;;;27.88;5.72;;;;;;;27.21;51.75;98959.75;4812728;29;20074;-92
2023/08/02 11:44:50;;;;;;;14.52;5.88;;;;;;;26.94;52.37;98951.47;4820201;29;20082;-93
2023/08/02 11:47:20;;;;;;;14.07;7.75;;;;;;;26.98;53.04;98979.44;4837123;29;20022;-91
2023/08/02 11:49:48;;;;;;;33.55;7.75;;;;;;;27.09;52.66;98961.19;4828997;29;20178;-91
2023/08/02 11:52:29;;;;;;;23.00;7.38;;;;;;;27.30;52.78;98926.25;4836303;29;20053;-91
2023/08/02 11:54:55;;;;;;;26.48;10.00;;;;;;;27.78;52.40;98966.06;4898840;29;20054;-90
2023/08/02 11:57:22;;;;;;;;;;;;;;;28.26;54.06;98981.34;4939515;29;20075;-89
2023/08/02 11:59:51;;;;;;;22.90;7.93;;;;;;;28.46;53.73;98973.59;4927147;29;19906;-93
2023/08/02 12:02:41;;;;;;;25.08;8.63;;;;;;;28.57;52.63;98954.41;4926004;29;20046;-91
2023/08/02 12:05:18;;;;;;;13.57;7.45;;;;;;;28.79;51.28;98965.84;4927767;29;20043;-93
2023/08/02 12:08:22;;;;;;;21.48;8.13;;;;;;;28.62;51.15;98981.22;4928466;29;20039;-92
2023/08/02 12:10:50;;;;;;;22.52;7.15;;;;;;;28.52;51.02;98959.81;4930174;29;20051;-92
2023/08/02 12:13:18;;;;;;;19.58;7.30;;;;;;;28.50;50.91;98957.41;4929937;29;20077;-92
2023/08/02 12:16:02;;;;;;;19.90;6.63;;;;;;;28.21;50.44;98965.81;4927031;29;20102;-91
2023/08/02 12:18:28;;;;;;;18.30;6.70;;;;;;;27.99;52.27;98964.78;4947103;29;20103;-93
2023/08/02 12:20:57;;;;;;;11.70;6.65;;;;;;;27.91;52.91;98941.69;4906179;29;20094;-92
2023/08/02 12:23:31;;;;;;;12.23;6.97;;;;;;;27.93;52.32;98907.53;4936401;29;20083;-92
2023/08/02 12:25:57;;;;;;;10.55;6.78;;;;;;;28.12;50.79;98929.13;4921214;29;20149;-95
2023/08/02 12:28:25;;;;;;;13.23;6.82;;;;;;;27.84;50.65;98889.28;4924226;29;20039;-94
2023/08/02 12:31:04;;;;;;;;;;;;;;;28.13;52.41;98955.19;4935070;29;20050;-92
2023/08/02 12:33:32;;;;;;;14.57;6.63;;;;;;;27.75;53.31;98928.41;4917925;29;19922;-93
2023/08/02 12:35:59;;;;;;;15.80;5.70;;;;;;;27.83;54.19;98940.28;4917637;29;20051;-92
2023/08/02 12:38:29;;;;;;;29.98;6.82;;;;;;;27.87;54.90;98961.44;4918527;29;20043;-92
2023/08/02 12:41:00;;;;;;;26.67;6.78;;;;;;;27.29;57.02;98926.72;4934002;29;20090;-92
2023/08/02 12:43:27;;;;;;;20.17;6.47;;;;;;;27.24;53.67;98942.03;4920406;29;20054;-93
2023/08/02 12:45:55;;;;;;;14.48;6.60;;;;;;;26.69;54.30;98879.88;4934245;29;20043;-92
2023/08/02 12:48:27;;;;;;;13.55;7.03;;;;;;;26.67;54.90;98906.78;4935750;29;20040;-93
2023/08/02 12:50:55;;;;;;;10.02;7.00;;;;;;;26.54;55.32;98880.59;4919538;29;20043;-92
2023/08/02 12:53:32;;;;;;;20.08;7.30;;;;;;;26.84;55.61;98907.63;4940033;29;20055;-94
2023/08/02 12:55:58;;;;;;;16.85;7.03;;;;;;;26.96;56.26;98942.66;4922196;29;20075;-93
2023/08/02 12:58:26;;;;;;;15.00;7.00;;;;;;;26.73;56.48;98921.09;4920266;29;20047;-93
2023/08/02 13:00:57;;;;;;;9.18;7.05;;;;;;;26.55;55.98;98899.78;4900154;29;20053;-93
2023/08/02 13:03:23;;;;;;;26.08;8.70;;;;;;;26.44;57.45;98914.00;4895878;29;20052;-93
2023/08/02 13:05:50;;;;;;;16.85;6.38;;;;;;;26.11;57.39;98896.22;4898947;29;20073;-91
2023/08/02 13:08:17;;;;;;;28.23;7.85;;;;;;;26.01;57.56;98900.00;4891913;29;20110;-92
2023/08/02 13:10:45;;;;;;;10.48;6.50;;;;;;;25.99;57.73;98911.66;4913435;29;20529;-91
2023/08/02 13:13:11;;;;;;;25.92;7.90;;;;;;;25.60;57.99;98870.28;4914008;29;20068;-92
2023/08/02 13:15:39;;;;;;;17.30;8.45;;;;;;;25.43;58.59;98862.94;4885640;29;20190;-93
2023/08/02 13:18:16;;;;;;;32.03;8.32;;;;;;;25.56;59.12;98908.72;4932867;29;20055;-91
2023/08/02 13:20:44;;;;;;;23.23;8.68;;;;;;;25.39;59.25;98891.00;4881547;29;20099;-94
2023/08/02 13:23:12;;;;;;;21.98;9.07;;;;;;;25.31;58.94;98895.13;4930535;29;20076;-92
2023/08/02 13:25:38;;;;;;;22.88;7.82;;;;;;;25.04;59.49;98862.31;4899902;29;20055;-95
2023/08/02 13:28:07;;;;;;;27.15;9.55;;;;;;;25.22;59.44;98897.66;4916536;29;20130;-94
2023/08/02 13:30:34;;;;;;;15.80;8.98;;;;;;;25.24;59.59;98898.81;4900374;29;20418;-94
2023/08/02 13:33:02;;;;;;;33.75;10.07;;;;;;;25.83;58.86;98925.53;4947126;29;20139;-94
2023/08/02 13:35:28;;;;;;;27.30;10.70;;;;;;;26.18;58.44;98920.50;4935193;29;20039;-94
2023/08/02 13:37:54;;;;;;;18.88;10.00;;;;;;;26.06;58.45;98898.69;4943236;29;20466;-91
2023/08/02 13:40:20;;;;;;;19.40;8.80;;;;;;;25.99;57.33;98883.63;4896399;29;20075;-91
2023/08/02 13:42:46;;;;;;;14.38;8.52;;;;;;;26.27;56.38;98898.31;4895832;29;20044;-91
2023/08/02 13:45:14;;;;;;;15.35;8.63;;;;;;;26.37;57.21;98893.72;4892290;29;20052;-91
2023/08/02 13:47:41;;;;;;;18.17;7.88;;;;;;;26.05;56.81;98852.31;4905585;29;20576;-92
2023/08/02 13:50:07;;;;;;;18.80;7.63;;;;;;;25.96;57.63;98873.28;4879529;29;20044;-91
2023/08/02 13:53:09;;;;;;;13.93;8.85;;;;;;;25.92;58.72;98883.75;4917433;29;20055;-91
2023/08/02 13:55:42;;;;;;;31.35;9.07;;;;;;;25.74;59.24;98886.03;4908324;29;20044;-94
2023/08/02 13:58:09;;;;;;;27.55;10.00;;;;;;;25.81;59.03;98919.56;4950598;29;20039;-92
2023/08/02 14:00:36;;;;;;;32.70;9.80;;;;;;;25.62;59.42;98892.25;4922331;29;20091;-92
2023/08/02 14:03:23;;;;;;;18.55;9.50;;;;;;;25.31;59.93;98867.94;4951915;29;20055;-95
2023/08/02 14:06:13;;;;;;;42.83;10.10;;;;;;;25.09;60.82;98838.69;4948176;29;20023;-94
2023/08/02 14:09:26;;;;;;;259.40;17.55;;;;;;;25.08;61.81;98843.47;5016565;23;20124;-95
2023/08/02 14:11:52;;;;;;;50.95;10.25;;;;;;;25.22;62.23;98881.66;4919172;29;20047;-93
2023/08/02 14:14:20;;;;;;;24.33;9.55;;;;;;;25.25;62.01;98899.63;4903929;29;20051;-94
2023/08/02 14:16:49;;;;;;;27.27;9.55;;;;;;;24.88;62.66;98833.41;4904935;29;20079;-93
2023/08/02 14:19:17;;;;;;;;;;;;;;;25.30;63.71;98904.75;4905854;29;20064;-94